Terminal Aerodrome Forecast
Issued by NWS

Current Version | Previous Version | Graphics & Text | Print | Product List | Glossary On
Versions: 1 2 3 4 5 6 7 8 9 10 11 12 13 14 15 16 17
000
FTUS41 KPBZ 281100
TAFHLG
TAF
KHLG 281120Z 2812/2912 30008G16KT P6SM SCT005 OVC008
      TEMPO 2812/2814 -SHRASN BKN005
     FM281500 30006KT P6SM BKN025
     FM282100 32005KT P6SM BKN035=

USA.gov is the U.S. government's official web portal to all federal, state and local government web resources and services.